sensor_id;sensor_type;location;lat;lon;timestamp;pressure;altitude;pressure_sealevel;temperature;humidity
54872;BME280;43914;57.680;11.982;2023-05-12T00:02:09;101465.88;;;12.75;51.31
54872;BME280;43914;57.680;11.982;2023-05-12T00:04:34;101467.86;;;12.72;51.27
54872;BME280;43914;57.680;11.982;2023-05-12T00:07:00;101465.04;;;12.68;51.23
54872;BME280;43914;57.680;11.982;2023-05-12T00:09:26;101470.11;;;12.65;51.12
54872;BME280;43914;57.680;11.982;2023-05-12T00:11:52;101473.13;;;12.62;51.12
54872;BME280;43914;57.680;11.982;2023-05-12T00:14:18;101472.60;;;12.56;51.12
54872;BME280;43914;57.680;11.982;2023-05-12T00:16:44;101474.60;;;12.49;51.22
54872;BME280;43914;57.680;11.982;2023-05-12T00:19:11;101474.58;;;12.46;50.86
54872;BME280;43914;57.680;11.982;2023-05-12T00:21:37;101472.92;;;12.44;50.55
54872;BME280;43914;57.680;11.982;2023-05-12T00:24:03;101476.41;;;12.40;50.14
54872;BME280;43914;57.680;11.982;2023-05-12T00:26:28;101480.31;;;12.37;49.86
54872;BME280;43914;57.680;11.982;2023-05-12T00:28:54;101480.50;;;12.35;49.54
54872;BME280;43914;57.680;11.982;2023-05-12T00:31:19;101479.05;;;12.32;49.25
54872;BME280;43914;57.680;11.982;2023-05-12T00:33:45;101476.70;;;12.31;49.17
54872;BME280;43914;57.680;11.982;2023-05-12T00:36:10;101477.75;;;12.30;48.98
54872;BME280;43914;57.680;11.982;2023-05-12T00:38:36;101480.27;;;12.26;48.84
54872;BME280;43914;57.680;11.982;2023-05-12T00:41:02;101481.77;;;12.24;48.82
54872;BME280;43914;57.680;11.982;2023-05-12T00:43:29;101481.41;;;12.21;48.76
54872;BME280;43914;57.680;11.982;2023-05-12T00:45:56;101486.34;;;12.14;48.63
54872;BME280;43914;57.680;11.982;2023-05-12T00:48:21;101483.56;;;12.08;48.75
54872;BME280;43914;57.680;11.982;2023-05-12T00:50:47;101482.61;;;12.04;48.86
54872;BME280;43914;57.680;11.982;2023-05-12T00:53:13;101481.40;;;12.01;48.98
54872;BME280;43914;57.680;11.982;2023-05-12T00:55:39;101481.59;;;11.97;49.26
54872;BME280;43914;57.680;11.982;2023-05-12T00:58:05;101483.13;;;11.95;49.22
54872;BME280;43914;57.680;11.982;2023-05-12T01:00:30;101488.77;;;11.89;49.30
54872;BME280;43914;57.680;11.982;2023-05-12T01:02:56;101489.67;;;11.83;49.37
54872;BME280;43914;57.680;11.982;2023-05-12T01:05:25;101491.92;;;11.77;49.42
54872;BME280;43914;57.680;11.982;2023-05-12T01:07:55;101492.48;;;11.72;49.78
54872;BME280;43914;57.680;11.982;2023-05-12T01:10:21;101492.37;;;11.68;49.81
54872;BME280;43914;57.680;11.982;2023-05-12T01:12:46;101490.36;;;11.65;49.52
54872;BME280;43914;57.680;11.982;2023-05-12T01:15:12;101492.20;;;11.60;49.62
54872;BME280;43914;57.680;11.982;2023-05-12T01:17:41;101496.48;;;11.57;49.67
54872;BME280;43914;57.680;11.982;2023-05-12T01:20:08;101496.15;;;11.53;49.75
54872;BME280;43914;57.680;11.982;2023-05-12T01:22:36;101497.77;;;11.50;49.65
54872;BME280;43914;57.680;11.982;2023-05-12T01:25:09;101499.73;;;11.47;49.29
54872;BME280;43914;57.680;11.982;2023-05-12T01:27:38;101499.08;;;11.45;49.21
54872;BME280;43914;57.680;11.982;2023-05-12T01:30:05;101504.16;;;11.39;48.87
54872;BME280;43914;57.680;11.982;2023-05-12T01:32:32;101505.48;;;11.37;48.83
54872;BME280;43914;57.680;11.982;2023-05-12T01:34:57;101506.59;;;11.35;48.32
54872;BME280;43914;57.680;11.982;2023-05-12T01:37:23;101506.96;;;11.31;48.25
54872;BME280;43914;57.680;11.982;2023-05-12T01:39:52;101508.70;;;11.28;47.98
54872;BME280;43914;57.680;11.982;2023-05-12T01:42:18;101498.50;;;11.23;47.83
54872;BME280;43914;57.680;11.982;2023-05-12T01:44:44;101510.73;;;11.27;47.76
54872;BME280;43914;57.680;11.982;2023-05-12T01:47:09;101506.61;;;11.24;47.73
54872;BME280;43914;57.680;11.982;2023-05-12T01:49:36;101513.30;;;11.25;47.78
54872;BME280;43914;57.680;11.982;2023-05-12T01:52:02;101513.16;;;11.23;47.64
54872;BME280;43914;57.680;11.982;2023-05-12T01:54:28;101517.30;;;11.21;47.70
54872;BME280;43914;57.680;11.982;2023-05-12T01:56:53;101513.77;;;11.19;47.80
54872;BME280;43914;57.680;11.982;2023-05-12T01:59:19;101514.71;;;11.19;47.82
54872;BME280;43914;57.680;11.982;2023-05-12T02:01:44;101518.23;;;11.16;47.90
54872;BME280;43914;57.680;11.982;2023-05-12T02:04:10;101518.02;;;11.13;47.85
54872;BME280;43914;57.680;11.982;2023-05-12T02:06:36;101523.70;;;11.10;48.00
54872;BME280;43914;57.680;11.982;2023-05-12T02:09:01;101522.59;;;11.09;47.83
54872;BME280;43914;57.680;11.982;2023-05-12T02:11:27;101522.95;;;11.05;47.81
54872;BME280;43914;57.680;11.982;2023-05-12T02:13:52;101527.63;;;11.02;48.18
54872;BME280;43914;57.680;11.982;2023-05-12T02:16:18;101528.99;;;10.98;48.27
54872;BME280;43914;57.680;11.982;2023-05-12T02:18:43;101525.81;;;10.94;48.42
54872;BME280;43914;57.680;11.982;2023-05-12T02:21:09;101530.63;;;10.94;48.95
54872;BME280;43914;57.680;11.982;2023-05-12T02:23:35;101531.80;;;10.92;48.82
54872;BME280;43914;57.680;11.982;2023-05-12T02:26:00;101538.65;;;10.88;48.93
54872;BME280;43914;57.680;11.982;2023-05-12T02:28:26;101539.89;;;10.83;48.82
54872;BME280;43914;57.680;11.982;2023-05-12T02:30:51;101537.96;;;10.79;48.82
54872;BME280;43914;57.680;11.982;2023-05-12T02:33:18;101538.43;;;10.75;49.03
54872;BME280;43914;57.680;11.982;2023-05-12T02:35:44;101535.77;;;10.72;49.05
54872;BME280;43914;57.680;11.982;2023-05-12T02:38:11;101537.77;;;10.69;49.17
54872;BME280;43914;57.680;11.982;2023-05-12T02:40:37;101539.83;;;10.68;49.08
54872;BME280;43914;57.680;11.982;2023-05-12T02:43:03;101538.72;;;10.65;49.24
54872;BME280;43914;57.680;11.982;2023-05-12T02:45:28;101540.88;;;10.65;49.34
54872;BME280;43914;57.680;11.982;2023-05-12T02:47:54;101543.42;;;10.63;49.21
54872;BME280;43914;57.680;11.982;2023-05-12T02:50:19;101542.98;;;10.61;49.41
54872;BME280;43914;57.680;11.982;2023-05-12T02:52:48;101545.13;;;10.59;49.58
54872;BME280;43914;57.680;11.982;2023-05-12T02:55:13;101544.21;;;10.59;49.53
54872;BME280;43914;57.680;11.982;2023-05-12T02:57:39;101540.73;;;10.58;49.56
54872;BME280;43914;57.680;11.982;2023-05-12T03:00:06;101537.09;;;10.57;49.44
54872;BME280;43914;57.680;11.982;2023-05-12T03:02:32;101540.13;;;10.56;49.49
54872;BME280;43914;57.680;11.982;2023-05-12T03:04:59;101535.07;;;10.53;49.63
54872;BME280;43914;57.680;11.982;2023-05-12T03:07:25;101533.28;;;10.49;49.66
54872;BME280;43914;57.680;11.982;2023-05-12T03:09:51;101535.83;;;10.49;49.71
54872;BME280;43914;57.680;11.982;2023-05-12T03:12:17;101534.41;;;10.47;49.82
54872;BME280;43914;57.680;11.982;2023-05-12T03:14:42;101534.84;;;10.45;49.81
54872;BME280;43914;57.680;11.982;2023-05-12T03:17:08;101535.10;;;10.42;50.12
54872;BME280;43914;57.680;11.982;2023-05-12T03:19:33;101536.11;;;10.41;50.31
54872;BME280;43914;57.680;11.982;2023-05-12T03:22:00;101539.34;;;10.41;50.41
54872;BME280;43914;57.680;11.982;2023-05-12T03:24:25;101538.89;;;10.38;50.39
54872;BME280;43914;57.680;11.982;2023-05-12T03:26:51;101541.34;;;10.35;50.59
54872;BME280;43914;57.680;11.982;2023-05-12T03:29:17;101540.19;;;10.32;50.65
54872;BME280;43914;57.680;11.982;2023-05-12T03:31:42;101544.89;;;10.32;50.72
54872;BME280;43914;57.680;11.982;2023-05-12T03:34:08;101546.27;;;10.34;50.89
54872;BME280;43914;57.680;11.982;2023-05-12T03:36:33;101547.30;;;10.34;50.81
54872;BME280;43914;57.680;11.982;2023-05-12T03:38:58;101548.22;;;10.36;50.98
54872;BME280;43914;57.680;11.982;2023-05-12T03:41:24;101546.68;;;10.35;50.67
54872;BME280;43914;57.680;11.982;2023-05-12T03:43:49;101548.49;;;10.37;50.80
54872;BME280;43914;57.680;11.982;2023-05-12T03:46:15;101544.96;;;10.38;50.61
54872;BME280;43914;57.680;11.982;2023-05-12T03:48:40;101544.10;;;10.38;50.45
54872;BME280;43914;57.680;11.982;2023-05-12T03:51:06;101544.60;;;10.38;50.38
54872;BME280;43914;57.680;11.982;2023-05-12T03:53:31;101540.95;;;10.39;50.41
54872;BME280;43914;57.680;11.982;2023-05-12T03:55:57;101544.30;;;10.41;50.48
54872;BME280;43914;57.680;11.982;2023-05-12T03:58:22;101545.39;;;10.43;50.47
54872;BME280;43914;57.680;11.982;2023-05-12T04:00:48;101547.71;;;10.45;50.46
54872;BME280;43914;57.680;11.982;2023-05-12T04:03:15;101550.68;;;10.47;50.50
54872;BME280;43914;57.680;11.982;2023-05-12T04:05:41;101549.61;;;10.49;50.59
54872;BME280;43914;57.680;11.982;2023-05-12T04:08:08;101550.32;;;10.51;50.56
54872;BME280;43914;57.680;11.982;2023-05-12T04:10:40;101550.89;;;10.52;50.70
54872;BME280;43914;57.680;11.982;2023-05-12T04:13:06;101548.65;;;10.53;50.99
54872;BME280;43914;57.680;11.982;2023-05-12T04:15:33;101549.59;;;10.57;50.98
54872;BME280;43914;57.680;11.982;2023-05-12T04:18:00;101550.53;;;10.59;51.10
54872;BME280;43914;57.680;11.982;2023-05-12T04:20:26;101554.67;;;10.60;51.06
54872;BME280;43914;57.680;11.982;2023-05-12T04:22:51;101558.98;;;10.62;51.21
54872;BME280;43914;57.680;11.982;2023-05-12T04:25:17;101558.52;;;10.66;51.03
54872;BME280;43914;57.680;11.982;2023-05-12T04:27:42;101561.11;;;10.71;50.97
54872;BME280;43914;57.680;11.982;2023-05-12T04:30:08;101562.52;;;10.74;50.85
54872;BME280;43914;57.680;11.982;2023-05-12T04:32:33;101562.45;;;10.78;50.79
54872;BME280;43914;57.680;11.982;2023-05-12T04:34:59;101564.06;;;10.83;50.73
54872;BME280;43914;57.680;11.982;2023-05-12T04:37:24;101568.94;;;10.88;50.74
54872;BME280;43914;57.680;11.982;2023-05-12T04:39:50;101566.98;;;10.93;50.86
54872;BME280;43914;57.680;11.982;2023-05-12T04:42:15;101571.75;;;10.97;50.72
54872;BME280;43914;57.680;11.982;2023-05-12T04:44:41;101572.73;;;11.00;50.59
54872;BME280;43914;57.680;11.982;2023-05-12T04:47:06;101571.50;;;11.01;50.55
54872;BME280;43914;57.680;11.982;2023-05-12T04:49:32;101573.70;;;11.05;50.72
54872;BME280;43914;57.680;11.982;2023-05-12T04:51:57;101573.91;;;11.10;50.47
54872;BME280;43914;57.680;11.982;2023-05-12T04:54:22;101567.76;;;11.14;50.40
54872;BME280;43914;57.680;11.982;2023-05-12T04:56:48;101561.98;;;11.18;50.47
54872;BME280;43914;57.680;11.982;2023-05-12T04:59:14;101566.30;;;11.22;50.22
54872;BME280;43914;57.680;11.982;2023-05-12T05:01:41;101561.90;;;11.28;50.29
54872;BME280;43914;57.680;11.982;2023-05-12T05:04:07;101561.40;;;11.32;50.14
54872;BME280;43914;57.680;11.982;2023-05-12T05:06:33;101558.20;;;11.34;49.88
54872;BME280;43914;57.680;11.982;2023-05-12T05:08:58;101564.39;;;11.38;49.73
54872;BME280;43914;57.680;11.982;2023-05-12T05:11:24;101566.54;;;11.42;49.74
54872;BME280;43914;57.680;11.982;2023-05-12T05:13:50;101568.39;;;11.45;49.78
54872;BME280;43914;57.680;11.982;2023-05-12T05:16:16;101570.63;;;11.47;49.46
54872;BME280;43914;57.680;11.982;2023-05-12T05:18:42;101571.13;;;11.51;49.53
54872;BME280;43914;57.680;11.982;2023-05-12T05:21:13;101571.13;;;11.57;49.33
54872;BME280;43914;57.680;11.982;2023-05-12T05:23:39;101572.44;;;11.62;49.23
54872;BME280;43914;57.680;11.982;2023-05-12T05:26:06;101574.67;;;11.66;49.07
54872;BME280;43914;57.680;11.982;2023-05-12T05:28:32;101574.84;;;11.69;49.06
54872;BME280;43914;57.680;11.982;2023-05-12T05:30:57;101580.98;;;11.77;48.73
54872;BME280;43914;57.680;11.982;2023-05-12T05:33:23;101580.27;;;11.82;48.49
54872;BME280;43914;57.680;11.982;2023-05-12T05:35:49;101579.02;;;11.89;48.49
54872;BME280;43914;57.680;11.982;2023-05-12T05:38:14;101581.48;;;11.94;48.20
54872;BME280;43914;57.680;11.982;2023-05-12T05:40:40;101587.77;;;11.98;48.14
54872;BME280;43914;57.680;11.982;2023-05-12T05:43:05;101586.18;;;12.02;48.17
54872;BME280;43914;57.680;11.982;2023-05-12T05:45:32;101586.44;;;12.07;48.12
54872;BME280;43914;57.680;11.982;2023-05-12T05:47:57;101584.92;;;12.13;48.05
54872;BME280;43914;57.680;11.982;2023-05-12T05:50:23;101585.17;;;12.20;48.09
54872;BME280;43914;57.680;11.982;2023-05-12T05:52:48;101591.35;;;12.26;47.61
54872;BME280;43914;57.680;11.982;2023-05-12T05:55:14;101588.46;;;12.31;47.45
54872;BME280;43914;57.680;11.982;2023-05-12T05:57:39;101596.06;;;12.37;47.38
54872;BME280;43914;57.680;11.982;2023-05-12T06:00:05;101599.66;;;12.43;47.73
54872;BME280;43914;57.680;11.982;2023-05-12T06:02:34;101599.30;;;12.50;47.33
54872;BME280;43914;57.680;11.982;2023-05-12T06:05:01;101598.27;;;12.54;47.02
54872;BME280;43914;57.680;11.982;2023-05-12T06:07:26;101598.98;;;12.61;46.89
54872;BME280;43914;57.680;11.982;2023-05-12T06:09:53;101597.02;;;12.66;46.52
54872;BME280;43914;57.680;11.982;2023-05-12T06:12:19;101603.05;;;12.74;46.60
54872;BME280;43914;57.680;11.982;2023-05-12T06:14:44;101601.70;;;12.81;46.25
54872;BME280;43914;57.680;11.982;2023-05-12T06:17:10;101602.20;;;12.88;45.85
54872;BME280;43914;57.680;11.982;2023-05-12T06:19:35;101603.27;;;12.95;45.68
54872;BME280;43914;57.680;11.982;2023-05-12T06:22:01;101604.89;;;13.03;45.26
54872;BME280;43914;57.680;11.982;2023-05-12T06:24:26;101604.32;;;13.12;44.99
54872;BME280;43914;57.680;11.982;2023-05-12T06:26:52;101604.45;;;13.21;44.59
54872;BME280;43914;57.680;11.982;2023-05-12T06:29:17;101603.77;;;13.28;44.40
54872;BME280;43914;57.680;11.982;2023-05-12T06:31:44;101603.96;;;13.36;44.09
54872;BME280;43914;57.680;11.982;2023-05-12T06:34:10;101604.02;;;13.45;43.98
54872;BME280;43914;57.680;11.982;2023-05-12T06:36:36;101603.80;;;13.54;44.06
54872;BME280;43914;57.680;11.982;2023-05-12T06:39:01;101603.01;;;13.61;43.71
54872;BME280;43914;57.680;11.982;2023-05-12T06:41:27;101601.48;;;13.71;43.60
54872;BME280;43914;57.680;11.982;2023-05-12T06:43:52;101605.43;;;13.79;43.49
54872;BME280;43914;57.680;11.982;2023-05-12T06:46:18;101605.67;;;13.84;42.79
54872;BME280;43914;57.680;11.982;2023-05-12T06:48:43;101601.74;;;13.90;42.55
54872;BME280;43914;57.680;11.982;2023-05-12T06:51:09;101604.27;;;13.96;42.37
54872;BME280;43914;57.680;11.982;2023-05-12T06:53:34;101604.50;;;14.00;42.01
54872;BME280;43914;57.680;11.982;2023-05-12T06:56:05;101604.36;;;14.04;41.92
54872;BME280;43914;57.680;11.982;2023-05-12T06:58:31;101604.33;;;14.12;41.89
54872;BME280;43914;57.680;11.982;2023-05-12T07:00:56;101605.64;;;14.19;41.62
54872;BME280;43914;57.680;11.982;2023-05-12T07:03:22;101607.89;;;14.26;41.49
54872;BME280;43914;57.680;11.982;2023-05-12T07:05:48;101611.50;;;14.32;41.50
54872;BME280;43914;57.680;11.982;2023-05-12T07:08:13;101612.27;;;14.39;41.24
54872;BME280;43914;57.680;11.982;2023-05-12T07:10:39;101616.70;;;14.48;40.98
54872;BME280;43914;57.680;11.982;2023-05-12T07:13:05;101618.64;;;14.56;40.72
54872;BME280;43914;57.680;11.982;2023-05-12T07:15:31;101621.05;;;14.64;40.67
54872;BME280;43914;57.680;11.982;2023-05-12T07:17:56;101618.77;;;14.70;40.36
54872;BME280;43914;57.680;11.982;2023-05-12T07:20:22;101621.89;;;14.79;40.34
54872;BME280;43914;57.680;11.982;2023-05-12T07:22:47;101622.75;;;14.89;40.56
54872;BME280;43914;57.680;11.982;2023-05-12T07:25:13;101618.35;;;14.98;40.59
54872;BME280;43914;57.680;11.982;2023-05-12T07:27:40;101620.04;;;15.05;40.12
54872;BME280;43914;57.680;11.982;2023-05-12T07:30:07;101618.33;;;15.09;39.72
54872;BME280;43914;57.680;11.982;2023-05-12T07:32:33;101617.10;;;15.14;39.84
54872;BME280;43914;57.680;11.982;2023-05-12T07:34:59;101616.73;;;15.26;39.71
54872;BME280;43914;57.680;11.982;2023-05-12T07:37:25;101616.46;;;15.37;39.44
54872;BME280;43914;57.680;11.982;2023-05-12T07:39:50;101619.27;;;15.48;39.29
54872;BME280;43914;57.680;11.982;2023-05-12T07:42:16;101618.83;;;15.55;39.04
54872;BME280;43914;57.680;11.982;2023-05-12T07:44:41;101622.98;;;15.64;37.90
54872;BME280;43914;57.680;11.982;2023-05-12T07:47:07;101619.41;;;15.72;37.65
54872;BME280;43914;57.680;11.982;2023-05-12T07:49:33;101614.02;;;15.80;36.92
54872;BME280;43914;57.680;11.982;2023-05-12T07:51:58;101616.23;;;15.87;36.99
54872;BME280;43914;57.680;11.982;2023-05-12T07:54:23;101612.58;;;15.94;37.01
54872;BME280;43914;57.680;11.982;2023-05-12T07:56:49;101616.17;;;16.01;37.10
54872;BME280;43914;57.680;11.982;2023-05-12T07:59:15;101613.05;;;16.08;37.38
54872;BME280;43914;57.680;11.982;2023-05-12T08:01:41;101617.73;;;16.18;37.04
54872;BME280;43914;57.680;11.982;2023-05-12T08:04:07;101618.40;;;16.26;36.50
54872;BME280;43914;57.680;11.982;2023-05-12T08:06:33;101611.92;;;16.32;36.04
54872;BME280;43914;57.680;11.982;2023-05-12T08:08:59;101607.38;;;16.39;35.31
54872;BME280;43914;57.680;11.982;2023-05-12T08:11:25;101603.84;;;16.47;34.90
54872;BME280;43914;57.680;11.982;2023-05-12T08:13:51;101609.85;;;16.56;35.13
54872;BME280;43914;57.680;11.982;2023-05-12T08:16:18;101615.55;;;16.62;35.22
54872;BME280;43914;57.680;11.982;2023-05-12T08:18:44;101614.30;;;16.67;35.24
54872;BME280;43914;57.680;11.982;2023-05-12T08:21:09;101611.55;;;16.72;34.56
54872;BME280;43914;57.680;11.982;2023-05-12T08:23:35;101611.23;;;16.79;34.46
54872;BME280;43914;57.680;11.982;2023-05-12T08:26:03;101610.49;;;16.87;34.17
54872;BME280;43914;57.680;11.982;2023-05-12T08:28:29;101613.15;;;16.96;33.84
54872;BME280;43914;57.680;11.982;2023-05-12T08:30:56;101611.56;;;17.04;33.38
54872;BME280;43914;57.680;11.982;2023-05-12T08:33:23;101605.97;;;17.12;33.27
54872;BME280;43914;57.680;11.982;2023-05-12T08:35:48;101608.90;;;17.20;33.29
54872;BME280;43914;57.680;11.982;2023-05-12T08:38:17;101606.91;;;17.26;33.09
54872;BME280;43914;57.680;11.982;2023-05-12T08:41:03;101606.70;;;17.30;33.76
54872;BME280;43914;57.680;11.982;2023-05-12T08:43:43;101603.63;;;17.38;33.64
54872;BME280;43914;57.680;11.982;2023-05-12T08:46:11;101604.03;;;17.48;33.99
54872;BME280;43914;57.680;11.982;2023-05-12T08:48:38;101604.10;;;17.56;34.30
54872;BME280;43914;57.680;11.982;2023-05-12T08:51:06;101603.69;;;17.64;33.60
54872;BME280;43914;57.680;11.982;2023-05-12T08:53:36;101603.56;;;17.71;33.61
54872;BME280;43914;57.680;11.982;2023-05-12T08:56:03;101605.14;;;17.76;33.55
54872;BME280;43914;57.680;11.982;2023-05-12T08:58:30;101601.79;;;17.81;32.54
54872;BME280;43914;57.680;11.982;2023-05-12T09:00:56;101606.80;;;17.84;32.26
54872;BME280;43914;57.680;11.982;2023-05-12T09:03:25;101608.55;;;17.88;31.82
54872;BME280;43914;57.680;11.982;2023-05-12T09:05:57;101608.67;;;17.89;30.72
54872;BME280;43914;57.680;11.982;2023-05-12T09:08:28;101611.13;;;17.91;30.57
54872;BME280;43914;57.680;11.982;2023-05-12T09:10:58;101610.67;;;17.92;30.95
54872;BME280;43914;57.680;11.982;2023-05-12T09:16:03;101608.08;;;17.97;31.08
54872;BME280;43914;57.680;11.982;2023-05-12T09:18:44;101608.09;;;18.04;30.55
54872;BME280;43914;57.680;11.982;2023-05-12T09:21:11;101611.63;;;18.09;30.25
54872;BME280;43914;57.680;11.982;2023-05-12T09:23:37;101606.10;;;18.12;30.33
54872;BME280;43914;57.680;11.982;2023-05-12T09:26:03;101609.91;;;18.13;29.87
54872;BME280;43914;57.680;11.982;2023-05-12T09:28:36;101611.59;;;18.12;29.87
54872;BME280;43914;57.680;11.982;2023-05-12T09:31:22;101611.25;;;18.13;30.00
54872;BME280;43914;57.680;11.982;2023-05-12T09:33:49;101610.68;;;18.18;30.35
54872;BME280;43914;57.680;11.982;2023-05-12T09:36:17;101608.31;;;18.25;30.39
54872;BME280;43914;57.680;11.982;2023-05-12T09:38:42;101605.26;;;18.30;30.01
54872;BME280;43914;57.680;11.982;2023-05-12T09:41:08;101598.69;;;18.34;30.12
54872;BME280;43914;57.680;11.982;2023-05-12T09:43:34;101593.61;;;18.41;30.27
54872;BME280;43914;57.680;11.982;2023-05-12T09:46:05;101592.68;;;18.50;30.53
54872;BME280;43914;57.680;11.982;2023-05-12T09:48:31;101598.54;;;18.60;30.33
54872;BME280;43914;57.680;11.982;2023-05-12T09:50:57;101597.35;;;18.70;30.43
54872;BME280;43914;57.680;11.982;2023-05-12T09:53:23;101599.86;;;18.79;30.27
54872;BME280;43914;57.680;11.982;2023-05-12T09:55:49;101598.56;;;18.86;29.76
54872;BME280;43914;57.680;11.982;2023-05-12T09:58:18;101601.54;;;18.88;29.47
54872;BME280;43914;57.680;11.982;2023-05-12T10:00:45;101604.27;;;18.88;28.86
54872;BME280;43914;57.680;11.982;2023-05-12T10:03:16;101602.20;;;18.87;29.12
54872;BME280;43914;57.680;11.982;2023-05-12T10:05:57;101597.80;;;18.90;28.96
54872;BME280;43914;57.680;11.982;2023-05-12T10:08:47;101597.89;;;18.98;29.21
54872;BME280;43914;57.680;11.982;2023-05-12T10:11:13;101599.86;;;19.12;29.56
54872;BME280;43914;57.680;11.982;2023-05-12T10:13:40;101597.42;;;19.20;29.24
54872;BME280;43914;57.680;11.982;2023-05-12T10:16:06;101601.15;;;19.25;29.25
54872;BME280;43914;57.680;11.982;2023-05-12T10:18:33;101600.41;;;19.32;29.29
54872;BME280;43914;57.680;11.982;2023-05-12T10:21:00;101595.58;;;19.39;28.91
54872;BME280;43914;57.680;11.982;2023-05-12T10:23:26;101595.27;;;19.45;28.80
54872;BME280;43914;57.680;11.982;2023-05-12T10:25:53;101594.64;;;19.52;29.33
54872;BME280;43914;57.680;11.982;2023-05-12T10:28:23;101590.27;;;19.61;29.28
54872;BME280;43914;57.680;11.982;2023-05-12T10:30:50;101590.82;;;19.70;29.61
54872;BME280;43914;57.680;11.982;2023-05-12T10:33:16;101585.11;;;19.77;29.33
54872;BME280;43914;57.680;11.982;2023-05-12T10:35:42;101578.44;;;19.87;29.24
54872;BME280;43914;57.680;11.982;2023-05-12T10:38:13;101571.50;;;19.98;28.76
54872;BME280;43914;57.680;11.982;2023-05-12T10:41:01;101571.60;;;20.04;29.01
54872;BME280;43914;57.680;11.982;2023-05-12T10:43:40;101573.06;;;20.19;29.03
54872;BME280;43914;57.680;11.982;2023-05-12T10:48:32;101574.95;;;20.43;28.91
54872;BME280;43914;57.680;11.982;2023-05-12T10:51:09;101574.05;;;20.57;28.45
54872;BME280;43914;57.680;11.982;2023-05-12T10:53:37;101574.09;;;20.63;27.95
54872;BME280;43914;57.680;11.982;2023-05-12T10:56:04;101569.53;;;20.68;27.31
54872;BME280;43914;57.680;11.982;2023-05-12T10:58:30;101567.86;;;20.71;27.41
54872;BME280;43914;57.680;11.982;2023-05-12T11:01:04;101573.64;;;20.78;27.50
54872;BME280;43914;57.680;11.982;2023-05-12T11:03:30;101569.20;;;20.81;27.44
54872;BME280;43914;57.680;11.982;2023-05-12T11:06:03;101567.59;;;20.84;27.61
54872;BME280;43914;57.680;11.982;2023-05-12T11:08:29;101570.17;;;20.91;27.64
54872;BME280;43914;57.680;11.982;2023-05-12T11:10:56;101575.43;;;21.05;27.70
54872;BME280;43914;57.680;11.982;2023-05-12T11:13:23;101571.87;;;21.20;27.74
54872;BME280;43914;57.680;11.982;2023-05-12T11:15:50;101570.48;;;21.35;28.31
54872;BME280;43914;57.680;11.982;2023-05-12T11:18:20;101575.02;;;21.48;26.93
54872;BME280;43914;57.680;11.982;2023-05-12T11:20:48;101574.48;;;21.46;25.86
54872;BME280;43914;57.680;11.982;2023-05-12T11:23:27;101570.64;;;21.44;25.59
54872;BME280;43914;57.680;11.982;2023-05-12T11:25:54;101575.48;;;21.52;26.19
54872;BME280;43914;57.680;11.982;2023-05-12T11:28:23;101577.36;;;21.64;26.27
54872;BME280;43914;57.680;11.982;2023-05-12T11:30:52;101574.14;;;21.73;26.66
54872;BME280;43914;57.680;11.982;2023-05-12T11:33:19;101573.14;;;21.85;27.68
54872;BME280;43914;57.680;11.982;2023-05-12T11:35:49;101571.48;;;21.95;27.94
54872;BME280;43914;57.680;11.982;2023-05-12T11:38:18;101572.15;;;21.96;27.92
54872;BME280;43914;57.680;11.982;2023-05-12T11:40:45;101575.50;;;22.01;28.40
54872;BME280;43914;57.680;11.982;2023-05-12T11:43:11;101573.83;;;22.02;27.84
54872;BME280;43914;57.680;11.982;2023-05-12T11:45:39;101569.52;;;22.02;28.45
54872;BME280;43914;57.680;11.982;2023-05-12T11:48:11;101571.45;;;21.97;28.97
54872;BME280;43914;57.680;11.982;2023-05-12T11:50:41;101579.86;;;21.82;28.82
54872;BME280;43914;57.680;11.982;2023-05-12T11:53:14;101585.27;;;21.67;28.60
54872;BME280;43914;57.680;11.982;2023-05-12T11:55:52;101584.20;;;21.57;28.75
54872;BME280;43914;57.680;11.982;2023-05-12T11:58:24;101586.36;;;21.52;28.89
54872;BME280;43914;57.680;11.982;2023-05-12T12:00:53;101588.41;;;21.55;29.32
54872;BME280;43914;57.680;11.982;2023-05-12T12:03:23;101590.84;;;21.69;30.40
54872;BME280;43914;57.680;11.982;2023-05-12T12:06:00;101590.98;;;21.81;31.09
54872;BME280;43914;57.680;11.982;2023-05-12T12:08:26;101600.30;;;21.83;31.04
54872;BME280;43914;57.680;11.982;2023-05-12T12:10:52;101595.73;;;21.72;31.02
54872;BME280;43914;57.680;11.982;2023-05-12T12:13:24;101605.42;;;21.75;30.05
54872;BME280;43914;57.680;11.982;2023-05-12T12:15:51;101607.64;;;21.82;29.83
54872;BME280;43914;57.680;11.982;2023-05-12T12:18:17;101613.23;;;21.85;30.01
54872;BME280;43914;57.680;11.982;2023-05-12T12:20:46;101614.77;;;21.87;29.88
54872;BME280;43914;57.680;11.982;2023-05-12T12:23:11;101619.27;;;21.87;30.20
54872;BME280;43914;57.680;11.982;2023-05-12T12:25:37;101617.59;;;21.81;30.42
54872;BME280;43914;57.680;11.982;2023-05-12T12:28:03;101616.27;;;21.83;30.64
54872;BME280;43914;57.680;11.982;2023-05-12T12:30:29;101618.06;;;21.88;30.90
54872;BME280;43914;57.680;11.982;2023-05-12T12:32:54;101619.95;;;22.00;30.49
54872;BME280;43914;57.680;11.982;2023-05-12T12:35:20;101625.91;;;22.16;29.78
54872;BME280;43914;57.680;11.982;2023-05-12T12:37:46;101629.11;;;22.23;29.62
54872;BME280;43914;57.680;11.982;2023-05-12T12:40:17;101625.30;;;22.26;29.29
54872;BME280;43914;57.680;11.982;2023-05-12T12:42:43;101624.06;;;22.24;29.45
54872;BME280;43914;57.680;11.982;2023-05-12T12:45:09;101626.50;;;22.39;29.16